Time;durP1;ratioP1;P1;durP2;ratioP2;P2;SDS_P1;SDS_P2;PMS_P1;PMS_P2;Temp;Humidity;BMP_temperature;BMP_pressure;BME280_temperature;BME280_humidity;BME280_pressure;Samples;Min_cycle;Max_cycle;Signal;HPM_P1;HPM_P2
2021/12/14 00:01:56;;;;;;;10.13;7.20;;;;;;;6.58;67.09;95000.25;5090075;28;20196;-76
2021/12/14 00:04:28;;;;;;;13.47;10.40;;;;;;;6.52;66.96;94981.97;5090230;28;20197;-76
2021/12/14 00:06:57;;;;;;;12.60;9.03;;;;;;;6.57;66.98;95014.66;5089610;28;20185;-76
2021/12/14 00:09:30;;;;;;;11.77;8.40;;;;;;;6.56;66.92;94997.78;5090054;28;20189;-77
2021/12/14 00:12:15;;;;;;;11.07;8.63;;;;;;;6.57;67.00;95004.50;5088671;28;20278;-76
2021/12/14 00:15:04;;;;;;;12.57;8.27;;;;;;;6.59;66.71;94996.78;5090392;28;20182;-76
2021/12/14 00:17:35;;;;;;;10.90;8.47;;;;;;;6.58;66.84;95000.25;5089806;28;20193;-77
2021/12/14 00:20:08;;;;;;;8.67;7.60;;;;;;;6.57;66.86;95001.16;5072094;28;20212;-76
2021/12/14 00:24:05;;;;;;;8.27;6.67;;;;;;;6.37;66.87;94972.84;5090084;28;20190;-76
2021/12/14 00:25:22;;;;;;;7.10;5.87;;;;;;;6.57;66.99;95004.50;5089527;28;20690;-76
2021/12/14 00:27:51;;;;;;;6.83;6.13;;;;;;;6.57;66.79;95008.78;5089971;28;20178;-76
2021/12/14 00:30:18;;;;;;;5.97;5.37;;;;;;;6.57;66.76;95016.41;5090137;28;20243;-76
2021/12/14 00:32:45;;;;;;;5.90;5.13;;;;;;;6.48;66.77;95000.88;5090031;28;20213;-76
2021/12/14 00:35:13;;;;;;;6.40;5.77;;;;;;;6.55;66.81;95008.88;5089676;28;20189;-75
2021/12/14 00:37:42;;;;;;;5.60;4.97;;;;;;;6.56;66.83;95012.22;5089824;28;20242;-76
2021/12/14 00:40:14;;;;;;;5.70;5.10;;;;;;;6.57;66.73;95017.22;5089884;28;20641;-77
2021/12/14 00:42:41;;;;;;;5.60;4.80;;;;;;;6.56;66.70;95020.66;5089810;28;20185;-76
2021/12/14 00:45:10;;;;;;;4.63;4.20;;;;;;;6.46;66.76;95000.16;5089778;28;20225;-76
2021/12/14 00:47:37;;;;;;;6.10;4.63;;;;;;;6.59;66.75;95014.56;5089668;28;20641;-76
2021/12/14 00:50:05;;;;;;;4.97;4.47;;;;;;;6.58;66.67;95011.22;5089693;28;20201;-76
2021/12/14 00:52:33;;;;;;;5.57;5.07;;;;;;;6.58;66.74;95023.91;5089371;28;20236;-76
2021/12/14 00:55:00;;;;;;;4.63;4.23;;;;;;;6.58;66.73;95008.66;5089519;28;20189;-76
2021/12/14 00:57:27;;;;;;;4.63;3.87;;;;;;;6.58;66.65;95010.41;5089662;28;20207;-77
2021/12/14 00:59:54;;;;;;;4.50;4.10;;;;;;;6.59;66.65;95009.47;5089908;28;20575;-76
2021/12/14 01:02:24;;;;;;;5.00;4.50;;;;;;;6.59;66.81;95017.09;5097906;28;20204;-76
2021/12/14 01:04:55;;;;;;;5.73;4.60;;;;;;;6.58;66.72;95016.28;5109945;28;20193;-76
2021/12/14 01:07:27;;;;;;;4.53;4.13;;;;;;;6.52;66.96;94999.75;5109450;28;20192;-76
2021/12/14 01:09:58;;;;;;;5.60;4.40;;;;;;;6.59;66.82;95007.75;5109926;28;20216;-77
2021/12/14 01:12:35;;;;;;;4.57;4.00;;;;;;;6.59;66.71;95012.00;5109444;28;20262;-77
2021/12/14 01:15:25;;;;;;;4.30;3.90;;;;;;;6.61;66.67;95015.28;5110096;28;20213;-77
2021/12/14 01:18:12;;;;;;;4.37;3.97;;;;;;;6.60;66.72;95016.97;5109700;28;20185;-76
2021/12/14 01:20:42;;;;;;;5.17;4.10;;;;;;;6.47;66.64;94993.34;5109513;28;20272;-77
2021/12/14 01:23:17;;;;;;;4.33;3.93;;;;;;;6.45;66.78;94988.38;5110414;28;20199;-76
2021/12/14 01:25:50;;;;;;;4.40;3.83;;;;;;;6.59;66.71;95012.00;5113698;28;20218;-76
2021/12/14 01:28:20;;;;;;;4.03;3.60;;;;;;;6.59;66.70;95012.00;5113605;28;20243;-77
2021/12/14 01:30:58;;;;;;;4.20;3.77;;;;;;;6.59;66.87;95010.28;5113391;28;20181;-76
2021/12/14 01:33:28;;;;;;;4.43;4.00;;;;;;;6.36;66.87;94973.78;5113838;28;20199;-76
2021/12/14 01:35:56;;;;;;;4.80;4.40;;;;;;;6.22;66.70;94946.78;5113309;28;20195;-76
2021/12/14 01:38:35;;;;;;;4.60;4.20;;;;;;;6.61;66.73;95011.00;5113278;28;20666;-76
2021/12/14 01:41:08;;;;;;;4.73;4.20;;;;;;;6.49;66.82;94999.13;5112989;28;20180;-76
2021/12/14 01:43:40;;;;;;;4.07;3.70;;;;;;;6.61;66.74;95010.19;5113014;28;20236;-76
2021/12/14 01:46:13;;;;;;;5.70;3.83;;;;;;;6.61;66.80;95007.66;5113153;28;20196;-75
2021/12/14 01:48:42;;;;;;;4.40;4.00;;;;;;;6.61;66.77;95003.38;5113338;28;20200;-75
2021/12/14 01:51:10;;;;;;;4.60;4.13;;;;;;;6.60;66.74;95011.91;5112734;28;20192;-76
2021/12/14 01:53:40;;;;;;;4.10;3.70;;;;;;;6.53;66.82;94998.00;5113278;28;20217;-76
2021/12/14 01:56:13;;;;;;;4.60;4.20;;;;;;;6.61;66.74;95012.75;5112853;28;20212;-77
2021/12/14 01:58:43;;;;;;;4.43;4.03;;;;;;;6.61;66.67;95005.94;5113255;28;20648;-76
2021/12/14 02:01:15;;;;;;;5.17;4.30;;;;;;;6.60;66.84;95006.81;5112677;28;20203;-76
2021/12/14 02:03:50;;;;;;;4.83;4.40;;;;;;;6.41;66.70;94968.38;5113259;28;20200;-76
2021/12/14 02:06:21;;;;;;;5.03;4.53;;;;;;;6.44;66.81;94986.75;5112666;28;20196;-76
2021/12/14 02:08:55;;;;;;;5.00;4.33;;;;;;;6.60;66.76;95006.00;5113823;28;20193;-77
2021/12/14 02:11:22;;;;;;;4.20;3.80;;;;;;;6.46;66.84;94986.63;5113051;28;20199;-76
2021/12/14 02:13:54;;;;;;;4.87;4.37;;;;;;;6.51;66.64;94993.03;5112943;28;20220;-76
2021/12/14 02:16:23;;;;;;;4.77;4.27;;;;;;;6.13;66.76;94939.78;5112464;28;20185;-76
2021/12/14 02:18:54;;;;;;;4.63;4.17;;;;;;;6.48;66.96;94998.34;5112596;28;20242;-76
2021/12/14 02:21:23;;;;;;;4.33;3.97;;;;;;;6.58;66.95;95010.41;5112316;28;20239;-76
2021/12/14 02:23:53;;;;;;;4.40;3.97;;;;;;;6.39;67.00;94981.19;5112857;28;20203;-76
2021/12/14 02:26:22;;;;;;;4.57;4.17;;;;;;;6.13;67.04;94939.78;5112485;28;20185;-78
2021/12/14 02:28:49;;;;;;;5.73;5.03;;;;;;;6.56;67.20;95005.41;5112765;28;20606;-76
2021/12/14 02:31:20;;;;;;;5.20;4.60;;;;;;;6.57;67.28;95011.31;5112132;28;20672;-76
2021/12/14 02:33:50;;;;;;;4.77;4.37;;;;;;;6.55;67.13;95001.25;5112699;28;20551;-75
2021/12/14 02:36:21;;;;;;;5.50;5.00;;;;;;;6.54;67.32;95013.13;5111189;28;20185;-75
2021/12/14 02:39:04;;;;;;;5.17;4.67;;;;;;;6.41;67.32;94986.97;5112704;28;20557;-75
2021/12/14 02:41:31;;;;;;;4.40;4.00;;;;;;;6.54;67.34;95014.88;5115887;28;20195;-76
2021/12/14 02:43:59;;;;;;;5.03;4.53;;;;;;;6.53;67.31;95014.06;5117773;28;20225;-75
2021/12/14 02:46:30;;;;;;;6.50;4.90;;;;;;;6.53;67.44;95016.59;5118012;28;20189;-75
2021/12/14 02:49:01;;;;;;;4.83;4.37;;;;;;;6.51;67.55;95010.00;5118346;28;20188;-75
2021/12/14 02:51:30;;;;;;;5.00;4.57;;;;;;;6.46;67.65;95010.31;5119247;28;20193;-74
2021/12/14 02:54:03;;;;;;;4.67;4.27;;;;;;;6.47;67.92;95014.47;5121766;28;20215;-73
2021/12/14 02:56:32;;;;;;;4.53;4.13;;;;;;;6.42;67.89;95003.81;5119951;28;20201;-76
2021/12/14 02:59:03;;;;;;;4.70;4.23;;;;;;;6.36;67.96;95000.91;5120077;28;20192;-76
2021/12/14 03:01:31;;;;;;;4.77;4.33;;;;;;;6.41;68.10;95017.44;5114966;28;20197;-75
2021/12/14 03:04:01;;;;;;;5.17;4.67;;;;;;;6.39;67.99;95009.13;5111785;28;20216;-74
2021/12/14 03:06:31;;;;;;;4.93;4.53;;;;;;;6.50;68.10;95026.97;5111110;28;20250;-75
2021/12/14 03:09:09;;;;;;;5.80;5.20;;;;;;;6.49;68.10;95030.44;5111651;28;20193;-76
2021/12/14 03:11:37;;;;;;;5.13;4.63;;;;;;;6.49;67.92;95027.91;5111171;28;20253;-74
2021/12/14 03:14:05;;;;;;;4.87;4.47;;;;;;;6.49;68.04;95025.34;5111658;28;20730;-74
2021/12/14 03:16:35;;;;;;;5.63;4.90;;;;;;;6.50;68.38;95024.44;5111341;28;20207;-75
2021/12/14 03:19:06;;;;;;;5.20;4.70;;;;;;;6.50;68.28;95038.88;5111352;28;20201;-75
2021/12/14 03:21:36;;;;;;;5.60;5.10;;;;;;;6.22;68.43;94997.56;5110895;28;20185;-76
2021/12/14 03:24:09;;;;;;;4.77;4.37;;;;;;;6.23;68.25;94993.28;5111224;28;20189;-75
2021/12/14 03:26:48;;;;;;;5.13;4.63;;;;;;;6.49;68.24;95032.97;5110936;28;20223;-75
2021/12/14 03:29:27;;;;;;;4.97;4.47;;;;;;;6.47;68.34;95027.16;5110947;28;20181;-75
2021/12/14 03:31:57;;;;;;;5.10;4.60;;;;;;;6.48;68.35;95028.81;5111155;28;20185;-75
2021/12/14 03:34:28;;;;;;;5.27;4.50;;;;;;;6.48;68.29;95028.00;5110636;28;20196;-75
2021/12/14 03:36:58;;;;;;;4.50;4.10;;;;;;;6.35;68.50;95001.78;5110689;28;20218;-75
2021/12/14 03:39:29;;;;;;;5.00;4.50;;;;;;;6.48;68.26;95028.00;5111079;28;20608;-75
2021/12/14 03:41:59;;;;;;;5.53;4.90;;;;;;;6.48;68.15;95031.34;5110938;28;20189;-75
2021/12/14 03:44:29;;;;;;;5.23;4.33;;;;;;;6.47;68.27;95031.44;5110520;28;20225;-75
2021/12/14 03:46:59;;;;;;;5.00;4.50;;;;;;;6.46;68.41;95028.09;5110883;28;20219;-76
2021/12/14 03:49:31;;;;;;;4.20;3.87;;;;;;;6.38;68.29;95016.84;5110617;28;20185;-75
2021/12/14 03:51:58;;;;;;;4.43;4.03;;;;;;;6.44;68.17;95026.59;5110661;28;20200;-77
2021/12/14 03:54:27;;;;;;;4.77;4.10;;;;;;;6.47;68.29;95036.53;5110589;28;20193;-74
2021/12/14 03:56:54;;;;;;;4.77;4.37;;;;;;;6.48;68.31;95038.19;5110654;28;20676;-75
2021/12/14 03:59:22;;;;;;;5.30;4.80;;;;;;;6.47;68.35;95031.44;5110872;28;20659;-75
2021/12/14 04:01:51;;;;;;;4.90;4.40;;;;;;;6.13;68.30;94984.66;5111333;28;20272;-76
2021/12/14 04:04:22;;;;;;;5.03;4.43;;;;;;;6.38;68.32;95027.81;5111414;28;20181;-75
2021/12/14 04:06:52;;;;;;;5.33;4.60;;;;;;;6.48;68.50;95044.06;5111038;28;20181;-75
2021/12/14 04:09:21;;;;;;;5.80;4.53;;;;;;;6.19;68.60;94997.78;5110850;28;20185;-75
2021/12/14 04:11:49;;;;;;;5.60;4.73;;;;;;;6.41;68.72;95032.69;5110471;28;20196;-75
2021/12/14 04:14:17;;;;;;;6.80;4.80;;;;;;;6.42;68.85;95039.38;5110700;28;20204;-75
2021/12/14 04:16:48;;;;;;;5.13;4.43;;;;;;;6.40;68.82;95038.69;5110464;28;20185;-77
2021/12/14 04:19:20;;;;;;;7.50;4.80;;;;;;;6.46;68.83;95052.69;5110194;28;20204;-75
2021/12/14 04:21:48;;;;;;;5.67;4.73;;;;;;;6.45;68.86;95054.41;5110298;28;20195;-75
2021/12/14 04:24:19;;;;;;;5.93;5.03;;;;;;;6.45;69.03;95051.06;5110361;28;20193;-75
2021/12/14 04:26:46;;;;;;;5.60;5.10;;;;;;;6.45;68.99;95056.16;5110223;28;20197;-75
2021/12/14 04:29:15;;;;;;;6.20;4.93;;;;;;;6.44;69.12;95057.06;5110460;28;20185;-75
2021/12/14 04:31:44;;;;;;;5.83;5.10;;;;;;;6.14;69.35;95014.25;5110057;28;20245;-76
2021/12/14 04:34:11;;;;;;;5.80;5.20;;;;;;;6.21;69.12;95026.41;5110176;28;20205;-75
2021/12/14 04:36:40;;;;;;;5.73;5.20;;;;;;;6.42;69.34;95066.50;5110144;28;20208;-75
2021/12/14 04:39:31;;;;;;;6.70;5.63;;;;;;;6.40;69.39;95061.53;5110217;28;20212;-75
2021/12/14 04:53:33;;;;;;;6.47;5.73;;;;;;;6.18;69.82;95039.31;5109687;28;20220;-75
2021/12/14 04:56:01;;;;;;;7.17;5.57;;;;;;;6.36;69.75;95069.47;5109871;28;20200;-75
2021/12/14 04:58:30;;;;;;;9.30;6.77;;;;;;;6.35;69.83;95062.75;5111111;28;20189;-75
2021/12/14 05:01:00;;;;;;;6.73;5.90;;;;;;;6.35;69.91;95060.22;5114145;28;20253;-76
2021/12/14 05:03:31;;;;;;;6.87;5.90;;;;;;;6.03;69.83;95010.66;5113867;28;20553;-75
2021/12/14 05:06:10;;;;;;;7.60;6.30;;;;;;;6.27;70.04;95053.94;5114376;28;20570;-76
2021/12/14 05:11:24;;;;;;;6.10;5.50;;;;;;;6.32;70.02;95063.78;5113600;28;20238;-75
2021/12/14 05:13:55;;;;;;;7.50;5.83;;;;;;;6.35;69.92;95068.66;5113826;28;20270;-78
2021/12/14 05:16:26;;;;;;;7.10;5.70;;;;;;;6.36;70.00;95069.47;5113498;28;20197;-75
2021/12/14 05:18:57;;;;;;;6.90;5.90;;;;;;;6.37;69.97;95071.91;5113992;28;20185;-76
2021/12/14 05:21:24;;;;;;;7.13;6.27;;;;;;;6.36;70.15;95070.28;5113558;28;20241;-75
2021/12/14 05:23:51;;;;;;;7.60;6.00;;;;;;;6.36;70.03;95074.56;5113550;28;20684;-75
2021/12/14 05:26:19;;;;;;;6.50;5.90;;;;;;;6.35;70.30;95073.75;5113498;28;20189;-77
2021/12/14 05:28:47;;;;;;;6.53;5.87;;;;;;;6.08;70.20;95027.31;5113521;28;20612;-76
2021/12/14 05:31:15;;;;;;;6.73;6.03;;;;;;;6.35;70.28;95071.22;5113444;28;20192;-76
2021/12/14 05:33:44;;;;;;;7.03;6.33;;;;;;;6.36;70.10;95067.75;5113486;28;20208;-76
2021/12/14 05:36:15;;;;;;;7.30;6.23;;;;;;;6.36;70.17;95066.94;5113424;28;20189;-76
2021/12/14 05:38:54;;;;;;;8.40;5.80;;;;;;;6.36;70.24;95072.81;5112989;28;20192;-76
2021/12/14 05:44:09;;;;;;;7.73;5.40;;;;;;;6.29;70.06;95062.25;5110963;28;20228;-76
2021/12/14 05:46:37;;;;;;;9.10;6.47;;;;;;;6.36;70.18;95075.38;5106250;28;20533;-76
2021/12/14 05:49:08;;;;;;;6.20;5.57;;;;;;;6.36;69.99;95072.81;5098441;28;20194;-76
2021/12/14 05:51:36;;;;;;;8.13;6.50;;;;;;;6.37;70.18;95076.97;5090402;28;20182;-78
2021/12/14 05:54:04;;;;;;;7.80;5.83;;;;;;;6.37;70.16;95086.34;5090326;28;20709;-77
2021/12/14 05:56:32;;;;;;;7.90;6.13;;;;;;;6.38;70.11;95090.50;5090412;28;20177;-78
2021/12/14 05:59:00;;;;;;;6.33;5.70;;;;;;;6.39;69.96;95092.94;5090026;28;20190;-80
2021/12/14 06:01:29;;;;;;;8.63;6.13;;;;;;;6.39;69.91;95105.66;5090342;28;20193;-76
2021/12/14 06:03:59;;;;;;;7.37;5.87;;;;;;;6.40;69.90;95098.84;5090307;28;20194;-76
2021/12/14 06:06:30;;;;;;;6.70;6.00;;;;;;;6.41;69.91;95111.44;5089998;28;20190;-76
2021/12/14 06:09:05;;;;;;;6.60;6.00;;;;;;;6.21;69.68;95064.47;5089624;28;20205;-74
2021/12/14 06:11:32;;;;;;;8.53;6.70;;;;;;;6.43;69.88;95104.53;5089831;28;20194;-75
2021/12/14 06:13:59;;;;;;;7.57;6.77;;;;;;;6.44;69.89;95105.34;5089665;28;20251;-74
2021/12/14 06:16:28;;;;;;;9.97;8.03;;;;;;;6.45;69.75;95097.59;5089727;28;20197;-75
2021/12/14 06:19:11;;;;;;;12.07;10.27;;;;;;;6.40;69.78;95092.03;5089626;28;20193;-76
2021/12/14 06:21:42;;;;;;;11.83;8.70;;;;;;;6.46;69.79;95101.75;5089703;28;20190;-79
2021/12/14 06:24:13;;;;;;;13.30;9.87;;;;;;;6.31;69.73;95076.59;5089376;28;20198;-74
2021/12/14 06:26:43;;;;;;;11.47;9.53;;;;;;;6.30;69.90;95073.22;5089396;28;20194;-77
2021/12/14 06:29:12;;;;;;;11.83;9.10;;;;;;;6.50;69.85;95100.66;5089563;28;20181;-76
2021/12/14 06:31:41;;;;;;;13.20;9.70;;;;;;;6.52;69.81;95106.44;5089589;28;20208;-72
2021/12/14 06:34:20;;;;;;;10.37;8.20;;;;;;;6.54;69.80;95111.44;5107936;27;20216;-72
2021/12/14 06:37:30;;;;;;;10.37;7.50;;;;;;;6.47;69.63;95100.03;5109451;28;20228;-73
2021/12/14 06:40:07;;;;;;;13.40;8.47;;;;;;;6.45;69.38;95110.31;4967632;28;20197;-76
2021/12/14 06:42:38;;;;;;;9.57;8.47;;;;;;;6.34;69.45;95084.00;4967678;28;20204;-72
2021/12/14 06:45:10;;;;;;;11.67;8.90;;;;;;;6.58;69.40;95119.66;4967641;28;20713;-75
2021/12/14 06:47:37;;;;;;;8.77;7.33;;;;;;;6.62;69.46;95121.09;4967221;28;20618;-72
2021/12/14 06:50:07;;;;;;;8.40;7.47;;;;;;;6.55;69.38;95115.59;4967368;28;20204;-75
2021/12/14 06:52:34;;;;;;;8.27;7.17;;;;;;;6.66;69.43;95132.66;4967037;28;20197;-73
2021/12/14 06:55:04;;;;;;;9.83;7.53;;;;;;;6.65;69.21;95125.94;4967389;28;20212;-78
2021/12/14 06:57:30;;;;;;;8.13;7.33;;;;;;;6.73;69.20;95137.22;4967034;28;20201;-73
2021/12/14 06:59:58;;;;;;;9.03;7.50;;;;;;;6.71;69.09;95135.69;4957451;28;20210;-73
2021/12/14 07:02:26;;;;;;;8.97;7.70;;;;;;;6.81;69.16;95146.06;4947990;29;20205;-73
2021/12/14 07:04:53;;;;;;;11.37;7.53;;;;;;;6.82;68.97;95143.41;4947950;29;20305;-74
2021/12/14 07:07:23;;;;;;;8.50;7.07;;;;;;;6.86;69.02;95144.00;4947626;29;20186;-75
2021/12/14 07:09:54;;;;;;;10.73;7.47;;;;;;;6.83;69.10;95141.69;4947877;29;20198;-73
2021/12/14 07:12:26;;;;;;;10.63;8.03;;;;;;;6.92;68.85;95144.41;4947347;29;21063;-75
2021/12/14 07:15:11;;;;;;;9.77;7.27;;;;;;;6.95;68.90;95153.56;4947699;29;20215;-75
2021/12/14 07:17:43;;;;;;;8.87;7.50;;;;;;;6.86;68.87;95129.56;5062374;28;20216;-78
2021/12/14 07:20:24;;;;;;;7.23;6.53;;;;;;;6.81;68.90;95123.19;5088413;28;20198;-76
2021/12/14 07:22:53;;;;;;;8.07;6.60;;;;;;;7.01;68.83;95151.41;5100783;28;20193;-73
2021/12/14 07:25:24;;;;;;;10.27;7.23;;;;;;;7.04;68.71;95152.94;5105193;28;20242;-74
2021/12/14 07:27:53;;;;;;;9.63;7.10;;;;;;;7.08;68.76;95158.63;5106686;28;20189;-73
2021/12/14 07:30:24;;;;;;;11.63;8.23;;;;;;;7.00;68.74;95144.72;5086899;28;20245;-74
2021/12/14 07:32:56;;;;;;;10.90;8.17;;;;;;;7.14;68.63;95160.75;5087047;28;20201;-79
2021/12/14 07:35:28;;;;;;;6.07;4.00;;;;;;;7.10;89.98;95126.28;5085405;28;20190;-77
2021/12/14 07:37:58;;;;;;;4.53;4.13;;;;;;;8.38;100.00;95157.88;5097578;28;20185;-76
2021/12/14 07:40:32;;;;;;;9.90;7.37;;;;;;;9.49;100.00;95168.19;5106915;28;20623;-74
2021/12/14 07:43:18;;;;;;;9.47;8.07;;;;;;;10.08;100.00;95162.66;5107519;28;20195;-74
2021/12/14 07:45:47;;;;;;;8.87;7.33;;;;;;;10.02;100.00;95143.53;5103389;28;20846;-74
2021/12/14 07:48:14;;;;;;;7.00;6.30;;;;;;;10.19;100.00;95172.84;5104821;28;20561;-75
2021/12/14 07:50:46;;;;;;;8.00;7.20;;;;;;;10.04;100.00;95158.72;5101404;28;20197;-74
2021/12/14 07:53:13;;;;;;;8.50;7.60;;;;;;;9.91;97.30;95163.19;5104980;28;20200;-73
2021/12/14 07:55:43;;;;;;;9.53;7.10;;;;;;;9.86;92.89;95170.41;5094834;28;20208;-74
2021/12/14 07:58:10;;;;;;;7.93;6.97;;;;;;;9.74;89.20;95172.19;5086613;28;20660;-74
2021/12/14 08:00:42;;;;;;;10.97;7.33;;;;;;;9.63;85.74;95177.31;5089449;28;20193;-73
2021/12/14 08:03:10;;;;;;;10.47;7.87;;;;;;;9.52;82.72;95184.06;5098460;28;20850;-74
2021/12/14 08:05:40;;;;;;;10.13;7.70;;;;;;;9.41;80.64;95180.72;5099943;28;20192;-74
2021/12/14 08:08:15;;;;;;;7.90;7.10;;;;;;;9.34;78.59;95182.13;5095992;28;20581;-75
2021/12/14 08:10:47;;;;;;;9.20;7.30;;;;;;;9.27;77.19;95189.44;5098578;28;20287;-72
2021/12/14 08:13:18;;;;;;;8.17;7.00;;;;;;;9.22;76.05;95194.09;5096411;28;20185;-73
2021/12/14 08:15:52;;;;;;;8.20;6.80;;;;;;;9.12;75.05;95181.22;5092103;28;20209;-72
2021/12/14 08:18:23;;;;;;;8.67;7.20;;;;;;;9.12;74.43;95188.06;5090113;28;20242;-74
2021/12/14 08:20:53;;;;;;;11.57;8.17;;;;;;;9.11;73.58;95194.09;5101070;28;20189;-74
2021/12/14 08:23:23;;;;;;;8.73;7.77;;;;;;;9.05;72.99;95196.19;5106758;28;20258;-73
2021/12/14 08:25:53;;;;;;;10.33;7.93;;;;;;;9.05;72.49;95195.38;5090033;28;20220;-74
2021/12/14 08:28:21;;;;;;;12.23;8.00;;;;;;;9.02;72.07;95196.44;5106503;28;20682;-77
2021/12/14 08:30:58;;;;;;;9.50;7.27;;;;;;;9.01;71.36;95204.19;5099653;28;20639;-74
2021/12/14 08:33:27;;;;;;;9.60;8.10;;;;;;;8.99;71.12;95199.19;5107840;28;20732;-75
2021/12/14 08:35:59;;;;;;;11.37;8.20;;;;;;;8.92;70.61;95195.47;5099569;28;20654;-74
2021/12/14 08:38:28;;;;;;;8.93;8.00;;;;;;;8.94;70.49;95200.47;5110759;28;20212;-75
2021/12/14 08:41:00;;;;;;;10.90;7.83;;;;;;;8.50;69.96;95131.47;5099925;28;20238;-74
2021/12/14 08:43:34;;;;;;;9.10;8.10;;;;;;;8.64;69.51;95150.84;5098401;28;20193;-72
2021/12/14 08:46:07;;;;;;;10.93;8.00;;;;;;;8.88;69.42;95188.19;5100352;28;20202;-73
2021/12/14 08:48:37;;;;;;;9.43;7.67;;;;;;;8.86;69.12;95183.19;5101977;28;20194;-72
2021/12/14 08:51:13;;;;;;;8.40;7.47;;;;;;;8.85;68.95;95186.69;5104449;28;20208;-71
2021/12/14 08:53:43;;;;;;;8.13;7.20;;;;;;;8.85;68.64;95188.41;5105634;28;20212;-72
2021/12/14 08:56:11;;;;;;;9.67;6.90;;;;;;;8.84;68.48;95187.59;5112520;28;20203;-72
2021/12/14 08:58:39;;;;;;;8.50;7.13;;;;;;;8.84;68.50;95182.50;5107140;28;20958;-74
2021/12/14 09:01:12;;;;;;;9.07;7.87;;;;;;;8.87;68.17;95184.00;5100208;28;20192;-73
2021/12/14 09:03:45;;;;;;;10.67;8.10;;;;;;;8.87;67.93;95179.72;5104307;28;20194;-73
2021/12/14 09:06:16;;;;;;;8.93;8.00;;;;;;;8.89;67.85;95180.41;5103003;28;20292;-72
2021/12/14 09:08:45;;;;;;;9.80;7.93;;;;;;;8.92;67.63;95176.81;5108607;28;20185;-72
2021/12/14 09:11:13;;;;;;;8.83;7.70;;;;;;;8.91;67.66;95165.81;5097770;28;20204;-73
2021/12/14 09:13:41;;;;;;;10.00;8.57;;;;;;;8.88;67.20;95153.28;5092251;28;20657;-74
2021/12/14 09:16:14;;;;;;;12.20;8.37;;;;;;;9.05;67.18;95174.97;5094934;28;20194;-73
2021/12/14 09:18:43;;;;;;;10.43;8.23;;;;;;;9.09;67.01;95173.78;5092320;28;20225;-73
2021/12/14 09:21:13;;;;;;;11.07;8.67;;;;;;;9.12;66.79;95176.13;5099758;28;20181;-77
2021/12/14 09:23:44;;;;;;;14.70;8.83;;;;;;;9.16;66.84;95177.53;5098935;28;20657;-77
2021/12/14 09:26:14;;;;;;;10.00;7.97;;;;;;;9.19;66.50;95167.06;5103461;28;20204;-76
2021/12/14 09:28:41;;;;;;;10.60;8.57;;;;;;;9.19;66.21;95164.50;5110191;28;20185;-75
2021/12/14 09:31:15;;;;;;;10.53;9.10;;;;;;;9.22;66.07;95150.72;5109872;28;20193;-75
2021/12/14 09:33:43;;;;;;;12.03;8.53;;;;;;;9.37;66.00;95169.13;5098630;28;20636;-76
2021/12/14 09:36:13;;;;;;;9.13;8.07;;;;;;;9.43;65.98;95161.00;5099329;28;20606;-73
2021/12/14 09:38:42;;;;;;;9.80;8.37;;;;;;;9.49;65.63;95161.31;5103316;28;20185;-72
2021/12/14 09:41:12;;;;;;;11.27;9.07;;;;;;;9.30;65.35;95117.75;5098859;28;20251;-73
2021/12/14 09:43:40;;;;;;;9.40;8.00;;;;;;;9.61;65.35;95151.09;5099885;28;20239;-74
2021/12/14 09:46:10;;;;;;;10.83;8.90;;;;;;;9.64;65.38;95143.22;5104694;28;20238;-72
2021/12/14 09:48:39;;;;;;;10.60;8.30;;;;;;;9.65;65.20;95143.06;5099562;28;20185;-75
2021/12/14 09:51:10;;;;;;;12.37;8.50;;;;;;;9.72;64.99;95143.41;5095884;28;20200;-72
2021/12/14 09:53:40;;;;;;;9.50;8.50;;;;;;;9.77;64.82;95141.31;5108508;28;20199;-74
2021/12/14 09:56:09;;;;;;;11.17;8.57;;;;;;;9.78;64.59;95145.47;5099600;28;20197;-75
2021/12/14 09:58:39;;;;;;;10.83;8.57;;;;;;;9.76;64.70;95137.94;5092380;28;20185;-73
2021/12/14 10:01:12;;;;;;;10.63;8.97;;;;;;;9.77;64.63;95131.09;5092741;28;20189;-73
2021/12/14 10:03:40;;;;;;;11.43;9.57;;;;;;;9.49;64.58;95076.28;5108055;28;20196;-72
2021/12/14 10:06:10;;;;;;;11.23;9.23;;;;;;;9.84;64.32;95129.66;5111781;28;20215;-76
2021/12/14 10:08:41;;;;;;;11.73;9.83;;;;;;;9.91;64.51;95142.75;5110749;28;20540;-76
2021/12/14 10:11:12;;;;;;;13.40;10.00;;;;;;;9.94;64.25;95142.50;5101630;28;20189;-73
2021/12/14 10:13:41;;;;;;;12.83;9.77;;;;;;;9.88;64.12;95128.47;5102674;28;20185;-72
2021/12/14 10:16:09;;;;;;;11.87;9.30;;;;;;;9.97;64.03;95143.09;5101957;28;20185;-73
2021/12/14 10:18:40;;;;;;;11.90;10.00;;;;;;;9.95;63.88;95139.03;5098214;28;20205;-75
2021/12/14 10:21:13;;;;;;;13.70;10.63;;;;;;;10.01;63.95;95143.63;5105547;28;20873;-74
2021/12/14 10:23:41;;;;;;;13.47;10.33;;;;;;;10.03;63.64;95140.03;5102864;28;20569;-74
2021/12/14 10:26:10;;;;;;;11.77;9.87;;;;;;;10.01;63.64;95126.53;5090934;28;20197;-76
2021/12/14 10:28:40;;;;;;;16.10;10.67;;;;;;;9.95;63.71;95116.84;5090815;28;20246;-74
2021/12/14 10:31:11;;;;;;;12.03;9.50;;;;;;;10.05;63.80;95124.56;5099055;28;20212;-74
2021/12/14 10:33:42;;;;;;;11.90;9.77;;;;;;;10.02;63.52;95114.59;5095115;28;20189;-75
2021/12/14 10:36:22;;;;;;;12.03;10.13;;;;;;;10.14;63.44;95128.13;5101826;28;20296;-73
2021/12/14 10:39:07;;;;;;;11.97;10.00;;;;;;;10.17;63.50;95128.69;5108393;28;20239;-75
2021/12/14 10:44:20;;;;;;;13.33;10.20;;;;;;;10.21;63.10;95130.06;5093067;28;20605;-73
2021/12/14 10:46:51;;;;;;;13.77;10.43;;;;;;;10.24;63.17;95118.78;5108690;28;20283;-72
2021/12/14 10:49:22;;;;;;;13.17;7.80;;;;;;;10.46;77.39;95117.88;5107203;28;20196;-74
2021/12/14 10:51:55;;;;;;;12.70;9.83;;;;;;;10.72;72.12;95111.41;5107805;28;20192;-73
2021/12/14 10:54:22;;;;;;;10.07;8.73;;;;;;;10.86;69.60;95112.78;5098370;28;20209;-74
2021/12/14 10:56:52;;;;;;;11.17;9.37;;;;;;;10.94;68.21;95114.72;5086950;28;20201;-76
2021/12/14 10:59:25;;;;;;;13.20;9.60;;;;;;;10.97;67.27;95111.91;5087565;28;20575;-75
2021/12/14 11:01:53;;;;;;;12.67;9.23;;;;;;;10.96;66.59;95110.25;5087579;28;20204;-75
2021/12/14 11:04:26;;;;;;;11.77;9.10;;;;;;;10.92;65.42;95109.72;5087938;28;20280;-75
2021/12/14 11:06:55;;;;;;;13.87;9.23;;;;;;;10.86;65.00;95109.44;5087342;28;20313;-79
2021/12/14 11:09:42;;;;;;;11.43;9.27;;;;;;;10.68;64.46;95086.22;5087586;28;20221;-74
2021/12/14 11:12:17;;;;;;;11.47;8.97;;;;;;;10.73;64.14;95104.53;5087314;28;20992;-75
2021/12/14 11:14:45;;;;;;;14.33;9.77;;;;;;;10.57;63.99;95099.06;5099947;28;20219;-73
2021/12/14 11:20:05;;;;;;;14.80;9.77;;;;;;;10.28;63.29;95076.75;5091372;28;20185;-74
2021/12/14 11:22:43;;;;;;;10.60;8.67;;;;;;;10.18;63.23;95071.53;5107740;28;20188;-77
2021/12/14 11:25:13;;;;;;;11.33;9.97;;;;;;;10.23;63.23;95087.31;5099129;28;20193;-77
2021/12/14 11:27:46;;;;;;;13.37;9.60;;;;;;;10.24;63.26;95100.91;5104628;28;20197;-72
2021/12/14 11:30:20;;;;;;;11.37;9.10;;;;;;;9.60;63.20;95001.38;5103085;28;20185;-76
2021/12/14 11:32:48;;;;;;;11.23;9.57;;;;;;;9.99;63.01;95092.66;5107362;28;20287;-76
2021/12/14 11:35:28;;;;;;;12.33;10.67;;;;;;;10.06;63.02;95108.31;5093544;28;20217;-75
2021/12/14 11:37:56;;;;;;;10.83;9.17;;;;;;;9.93;63.09;95092.34;5096347;28;20209;-79
2021/12/14 11:40:25;;;;;;;10.40;8.80;;;;;;;9.93;63.08;95094.88;5097141;28;20563;-77
2021/12/14 11:42:54;;;;;;;11.33;9.30;;;;;;;9.88;63.15;95099.56;5090824;28;20197;-76
2021/12/14 11:45:23;;;;;;;13.43;10.97;;;;;;;9.71;62.99;95083.03;5106674;28;20236;-77
2021/12/14 11:47:53;;;;;;;13.10;9.87;;;;;;;9.76;63.10;95094.53;5105707;28;20196;-78
2021/12/14 11:50:27;;;;;;;14.13;10.67;;;;;;;9.61;63.11;95085.53;5106791;28;20573;-77
2021/12/14 11:52:57;;;;;;;12.63;10.17;;;;;;;9.63;63.24;95096.44;5105579;28;20582;-72
2021/12/14 11:55:36;;;;;;;12.77;10.50;;;;;;;9.60;63.01;95095.88;5104046;28;20217;-76
2021/12/14 11:58:26;;;;;;;12.87;10.07;;;;;;;9.54;63.23;95090.31;5087907;28;20197;-79
2021/12/14 12:00:58;;;;;;;12.50;10.10;;;;;;;9.49;63.14;95091.59;5105766;28;20659;-76
2021/12/14 12:03:31;;;;;;;12.70;10.03;;;;;;;9.45;63.41;95091.00;5106537;28;20682;-75
2021/12/14 12:06:08;;;;;;;11.30;9.30;;;;;;;9.41;63.51;95092.22;5106901;28;20189;-76
2021/12/14 12:11:23;;;;;;;14.10;10.43;;;;;;;9.35;63.42;95085.03;5098617;28;20787;-75
2021/12/14 12:13:51;;;;;;;12.63;9.90;;;;;;;9.33;63.48;95086.09;5106161;28;20184;-78
2021/12/14 12:16:21;;;;;;;12.17;10.40;;;;;;;9.31;63.71;95088.75;5093619;28;20206;-75
2021/12/14 12:19:10;;;;;;;13.13;10.63;;;;;;;9.26;63.73;95086.56;5085851;28;20192;-76
2021/12/14 12:21:39;;;;;;;12.80;9.93;;;;;;;9.26;63.80;95088.31;5085972;28;20205;-74